Time;durP1;ratioP1;P1;durP2;ratioP2;P2;SDS_P1;SDS_P2;PMS_P1;PMS_P2;Temp;Humidity;BMP_temperature;BMP_pressure;BME280_temperature;BME280_humidity;BME280_pressure;Samples;Min_cycle;Max_cycle;Signal;HPM_P1;HPM_P2
2022/03/12 00:00:42;;;;;;;2.60;1.73;;;;;;;10.84;30.62;100902.09;5170418;28;20041;-82
2022/03/12 00:03:13;;;;;;;1.00;1.00;;;;;;;10.95;30.40;100901.81;5210949;28;20072;-82
2022/03/12 00:05:54;;;;;;;0.50;0.50;;;;;;;10.90;29.40;100904.56;5181622;28;20049;-82
2022/03/12 00:08:53;;;;;;;1.67;1.58;;;;;;;10.73;28.68;100904.13;5174652;28;20152;-81
2022/03/12 00:11:24;;;;;;;2.17;1.80;;;;;;;10.86;29.87;100905.56;5165636;28;20050;-81
2022/03/12 00:14:00;;;;;;;4.72;2.05;;;;;;;10.96;28.83;100899.16;5185832;28;20056;-81
2022/03/12 00:16:31;;;;;;;1.33;0.75;;;;;;;10.72;28.86;100898.03;5178605;28;20049;-81
2022/03/12 00:19:05;;;;;;;1.35;1.30;;;;;;;10.78;29.17;100894.38;5176705;28;20533;-81
2022/03/12 00:21:36;;;;;;;;;;;;;;;10.74;30.47;100897.97;5192398;28;20057;-80
2022/03/12 00:24:12;;;;;;;0.80;0.80;;;;;;;10.72;30.05;100908.53;5194987;28;19935;-80
2022/03/12 00:26:49;;;;;;;1.55;1.45;;;;;;;10.80;29.46;100908.31;5195428;28;20065;-80
2022/03/12 00:29:20;;;;;;;1.20;1.15;;;;;;;10.60;30.29;100906.19;5163391;28;20052;-80
2022/03/12 00:31:53;;;;;;;0.65;0.65;;;;;;;10.67;29.32;100908.63;5149107;28;20050;-80
2022/03/12 00:34:23;;;;;;;0.73;0.65;;;;;;;10.80;29.82;100903.94;5154657;28;20026;-80
2022/03/12 00:36:54;;;;;;;0.95;0.95;;;;;;;10.62;28.98;100914.88;5174878;28;20045;-81
2022/03/12 00:39:24;;;;;;;2.03;1.80;;;;;;;10.65;30.08;100907.81;5165957;28;20349;-80
2022/03/12 00:41:55;;;;;;;1.75;1.45;;;;;;;10.83;30.36;100906.47;5172296;28;20149;-82
2022/03/12 00:44:25;;;;;;;6.78;1.80;;;;;;;10.69;29.28;100912.09;5197993;28;20265;-81
2022/03/12 00:46:56;;;;;;;4.38;1.58;;;;;;;10.67;30.25;100913.88;5180437;28;20041;-81
2022/03/12 00:49:26;;;;;;;0.77;0.77;;;;;;;10.69;30.64;100917.34;5185435;28;20466;-81
2022/03/12 00:51:57;;;;;;;0.50;0.50;;;;;;;10.71;29.95;100919.91;5150968;28;20061;-82
2022/03/12 00:54:27;;;;;;;0.60;0.60;;;;;;;10.62;30.21;100926.22;5159514;28;20033;-81
2022/03/12 00:56:58;;;;;;;1.23;1.15;;;;;;;10.78;30.60;100921.47;5182456;28;20034;-80
2022/03/12 00:59:28;;;;;;;0.73;0.57;;;;;;;10.87;30.78;100920.38;5178007;28;20440;-81
2022/03/12 01:01:59;;;;;;;1.38;1.27;;;;;;;10.88;30.20;100921.25;5157823;28;20351;-79
2022/03/12 01:04:30;;;;;;;0.70;0.70;;;;;;;10.66;30.69;100929.66;5169143;28;20573;-79
2022/03/12 01:07:00;;;;;;;0.90;0.90;;;;;;;10.85;30.92;100922.22;5172699;28;20053;-80
2022/03/12 01:09:31;;;;;;;0.60;0.60;;;;;;;10.90;30.90;100930.81;5179558;28;20032;-81
2022/03/12 01:12:02;;;;;;;0.57;0.57;;;;;;;10.86;30.31;100922.16;5192282;28;20489;-81
2022/03/12 01:14:36;;;;;;;1.38;1.38;;;;;;;10.73;30.07;100922.50;5176950;28;20072;-81
2022/03/12 01:17:07;;;;;;;1.40;1.33;;;;;;;10.70;31.00;100929.53;5177249;28;20052;-82
2022/03/12 01:19:38;;;;;;;1.35;1.25;;;;;;;10.87;31.02;100928.25;5191352;28;20034;-79
2022/03/12 01:22:18;;;;;;;0.50;0.50;;;;;;;10.84;30.92;100930.97;5184296;28;20041;-80
2022/03/12 01:24:49;;;;;;;0.40;0.40;;;;;;;10.78;30.81;100928.50;5156732;28;20030;-80
2022/03/12 01:27:19;;;;;;;1.30;1.00;;;;;;;10.91;30.80;100935.16;5188966;28;20148;-81
2022/03/12 01:29:50;;;;;;;1.13;1.05;;;;;;;10.92;31.07;100928.13;5166102;28;20073;-80
2022/03/12 01:32:20;;;;;;;1.67;1.58;;;;;;;10.85;31.27;100928.31;5190967;28;20034;-82
2022/03/12 01:34:51;;;;;;;0.75;0.75;;;;;;;10.68;30.78;100928.72;5192056;28;20104;-82
2022/03/12 01:37:24;;;;;;;2.30;1.23;;;;;;;10.78;30.79;100931.97;5185291;28;20029;-81
2022/03/12 01:39:55;;;;;;;1.05;1.05;;;;;;;10.80;31.34;100929.31;5180673;28;20152;-80
2022/03/12 01:42:27;;;;;;;1.30;0.77;;;;;;;10.87;31.40;100936.13;5170134;28;20559;-81
2022/03/12 01:44:58;;;;;;;1.33;1.27;;;;;;;10.78;31.30;100931.13;5176365;28;20056;-80
2022/03/12 01:47:28;;;;;;;1.75;1.65;;;;;;;10.93;30.56;100924.63;5178450;28;20030;-80
2022/03/12 01:49:59;;;;;;;0.80;0.70;;;;;;;10.93;31.42;100935.13;5191938;28;20041;-81
2022/03/12 01:52:30;;;;;;;0.77;0.77;;;;;;;10.93;31.77;100936.00;5160041;28;20030;-81
2022/03/12 01:55:01;;;;;;;1.33;0.95;;;;;;;11.05;31.52;100939.19;5167836;28;20117;-80
2022/03/12 01:57:32;;;;;;;1.77;1.67;;;;;;;10.93;31.86;100935.13;5190021;28;20153;-80
2022/03/12 02:00:04;;;;;;;1.55;1.45;;;;;;;10.82;32.08;100936.28;5184555;28;20103;-80
2022/03/12 02:02:35;;;;;;;1.02;0.93;;;;;;;10.88;32.54;100943.09;5171798;28;20112;-79
2022/03/12 02:05:10;;;;;;;1.23;1.23;;;;;;;10.94;32.11;100937.72;5158607;28;20045;-80
2022/03/12 02:07:40;;;;;;;1.63;1.52;;;;;;;10.91;32.02;100937.78;5175816;28;20040;-81
2022/03/12 02:10:20;;;;;;;2.58;1.50;;;;;;;10.92;32.34;100943.88;5195122;28;20042;-81
2022/03/12 02:12:50;;;;;;;1.30;1.20;;;;;;;10.94;32.51;100940.34;5181857;28;20029;-81
2022/03/12 02:15:22;;;;;;;1.48;1.38;;;;;;;10.90;32.68;100945.72;5188907;28;20049;-82
2022/03/12 02:17:53;;;;;;;1.95;1.30;;;;;;;11.00;31.75;100948.06;5178205;28;20026;-81
2022/03/12 02:20:24;;;;;;;1.15;1.05;;;;;;;11.00;32.27;100945.44;5155384;28;20146;-81
2022/03/12 02:22:57;;;;;;;0.60;0.60;;;;;;;11.03;32.76;100945.34;5200430;28;20108;-80
2022/03/12 02:25:30;;;;;;;1.52;1.15;;;;;;;10.99;33.36;100943.72;5171850;28;20042;-81
2022/03/12 02:28:09;;;;;;;1.30;1.20;;;;;;;10.97;33.69;100947.28;5181924;28;20029;-80
2022/03/12 02:30:47;;;;;;;1.70;1.60;;;;;;;11.03;33.90;100947.13;5170857;28;20070;-81
2022/03/12 02:33:26;;;;;;;0.90;0.90;;;;;;;11.08;34.23;100944.38;5191465;28;20743;-80
2022/03/12 02:35:57;;;;;;;0.77;0.77;;;;;;;11.07;34.29;100940.03;5164005;28;20053;-81
2022/03/12 02:38:31;;;;;;;1.50;1.40;;;;;;;11.01;35.36;100952.41;5178107;28;20062;-81
2022/03/12 02:41:10;;;;;;;2.10;1.98;;;;;;;10.95;35.78;100947.31;5153447;28;20251;-81
2022/03/12 02:43:43;;;;;;;0.95;0.88;;;;;;;11.09;35.17;100946.97;5186269;28;20038;-80
2022/03/12 02:46:14;;;;;;;;;;;;;;;11.08;35.51;100941.75;5182188;28;20042;-83
2022/03/12 02:48:52;;;;;;;1.10;1.02;;;;;;;11.05;35.69;100944.44;5177095;28;19931;-82
2022/03/12 02:51:23;;;;;;;1.10;0.85;;;;;;;11.11;35.78;100949.56;5170096;28;20042;-82
2022/03/12 02:53:56;;;;;;;1.27;1.17;;;;;;;11.05;36.02;100940.06;5181436;28;20274;-82
2022/03/12 02:56:29;;;;;;;0.82;0.82;;;;;;;11.17;35.72;100944.16;5185173;28;20038;-81
2022/03/12 02:58:59;;;;;;;1.58;1.30;;;;;;;11.14;35.91;100944.22;5182911;28;20435;-81
2022/03/12 03:01:32;;;;;;;18.23;2.80;;;;;;;11.17;35.77;100941.53;5182976;28;20397;-81
2022/03/12 03:04:02;;;;;;;0.93;0.93;;;;;;;11.09;36.17;100938.22;5164912;28;20289;-82
2022/03/12 03:06:33;;;;;;;2.20;1.33;;;;;;;10.93;36.52;100943.00;5177222;28;20125;-82
2022/03/12 03:09:04;;;;;;;2.38;1.60;;;;;;;10.98;35.93;100947.25;5181503;28;20274;-82
2022/03/12 03:11:39;;;;;;;1.17;1.00;;;;;;;10.96;36.21;100940.31;5174838;28;20101;-82
2022/03/12 03:14:11;;;;;;;1.83;1.48;;;;;;;11.03;36.11;100952.38;5169181;28;20038;-81
2022/03/12 03:16:42;;;;;;;1.67;1.60;;;;;;;10.81;36.59;100952.91;5185086;28;20124;-80
2022/03/12 03:19:14;;;;;;;0.90;0.90;;;;;;;10.86;36.66;100950.19;5177376;28;20033;-80
2022/03/12 03:21:44;;;;;;;2.10;1.67;;;;;;;10.92;36.57;100952.66;5161276;28;20108;-80
2022/03/12 03:24:15;;;;;;;2.10;2.00;;;;;;;10.89;36.47;100959.75;5145888;28;1099665;-80
2022/03/12 03:26:50;;;;;;;4.38;1.20;;;;;;;10.92;36.37;100960.53;5178898;28;20099;-80
2022/03/12 03:29:23;;;;;;;2.58;2.38;;;;;;;10.76;37.02;100959.16;5174965;28;20248;-80
2022/03/12 03:31:54;;;;;;;1.90;1.80;;;;;;;10.66;36.49;100959.38;5193485;28;20442;-80
2022/03/12 03:34:27;;;;;;;3.53;1.75;;;;;;;10.78;36.18;100965.25;5189956;28;20017;-80
2022/03/12 03:36:58;;;;;;;4.32;2.45;;;;;;;10.86;36.55;100958.91;5167828;28;20494;-80
2022/03/12 03:39:28;;;;;;;0.68;0.68;;;;;;;10.51;36.54;100955.34;5202216;28;20040;-81
2022/03/12 03:41:59;;;;;;;0.60;0.60;;;;;;;10.71;36.45;100957.50;5177718;28;20050;-80
2022/03/12 03:44:29;;;;;;;2.30;2.10;;;;;;;10.74;36.58;100960.97;5190001;28;20303;-81
2022/03/12 03:47:00;;;;;;;0.52;0.52;;;;;;;10.73;36.54;100961.84;5189560;28;20328;-80
2022/03/12 03:49:31;;;;;;;1.05;1.02;;;;;;;10.74;35.95;100972.34;5193459;28;20393;-81
2022/03/12 03:52:02;;;;;;;4.78;1.58;;;;;;;10.74;36.40;100971.47;5159316;28;20049;-80
2022/03/12 03:54:33;;;;;;;1.30;1.20;;;;;;;10.65;36.71;100983.06;5199748;28;20545;-80
2022/03/12 03:57:03;;;;;;;0.45;0.45;;;;;;;10.69;36.41;100980.31;5201825;28;20037;-80
2022/03/12 03:59:34;;;;;;;1.88;1.67;;;;;;;10.70;36.54;100986.41;5192997;28;20030;-80
2022/03/12 04:02:05;;;;;;;1.00;1.00;;;;;;;10.62;36.45;100985.72;5181053;28;20030;-80
2022/03/12 04:04:36;;;;;;;1.85;1.75;;;;;;;10.64;36.41;100992.66;5189938;28;20029;-80
2022/03/12 04:07:07;;;;;;;1.50;1.40;;;;;;;10.53;36.63;100990.28;5193059;28;20381;-80
2022/03/12 04:09:37;;;;;;;1.88;1.77;;;;;;;10.59;36.67;100997.16;5174569;28;20026;-80
2022/03/12 04:12:08;;;;;;;1.33;1.25;;;;;;;10.61;36.38;100994.50;5173993;28;20037;-80
2022/03/12 04:14:39;;;;;;;0.85;0.85;;;;;;;10.65;36.62;100983.91;5150374;28;20070;-80
2022/03/12 04:17:09;;;;;;;1.00;1.00;;;;;;;10.52;36.30;100998.22;5168772;28;20045;-80
2022/03/12 04:19:40;;;;;;;1.15;1.10;;;;;;;10.45;36.19;100994.00;5165140;28;20141;-80
2022/03/12 04:22:10;;;;;;;1.63;1.52;;;;;;;10.54;36.16;101001.63;5185077;28;20022;-80
2022/03/12 04:24:41;;;;;;;1.85;1.75;;;;;;;10.56;35.94;101002.47;5171733;28;20125;-81
2022/03/12 04:27:14;;;;;;;1.23;1.13;;;;;;;10.54;36.09;101007.75;5171039;28;20033;-82
2022/03/12 04:29:45;;;;;;;1.42;1.33;;;;;;;10.54;35.78;101012.13;5175817;28;20097;-80
2022/03/12 04:32:16;;;;;;;0.60;0.60;;;;;;;10.57;36.04;101016.47;5182667;28;20169;-80
2022/03/12 04:34:46;;;;;;;3.95;1.17;;;;;;;10.43;35.80;101025.50;5167045;28;20219;-80
2022/03/12 04:37:17;;;;;;;1.65;1.55;;;;;;;10.44;35.82;101023.75;5157022;28;20096;-80
2022/03/12 04:39:49;;;;;;;0.68;0.68;;;;;;;10.47;36.09;101027.16;5162716;28;20042;-80
2022/03/12 04:42:22;;;;;;;0.80;0.80;;;;;;;10.49;35.91;101032.38;5165053;28;20122;-80
2022/03/12 04:44:52;;;;;;;1.50;1.40;;;;;;;10.31;36.18;101030.97;5167580;28;20029;-80
2022/03/12 04:47:24;;;;;;;1.40;1.30;;;;;;;10.26;36.13;101031.06;5173909;28;20050;-80
2022/03/12 04:49:56;;;;;;;1.45;1.35;;;;;;;10.34;36.17;101028.28;5174873;28;20045;-80
2022/03/12 04:52:26;;;;;;;1.45;1.35;;;;;;;10.42;36.29;101022.91;5182023;28;20026;-80
2022/03/12 04:54:57;;;;;;;1.17;1.17;;;;;;;10.33;36.26;101034.44;5173942;28;20041;-80
2022/03/12 04:57:27;;;;;;;1.70;1.60;;;;;;;10.33;36.09;101040.53;5181909;28;20594;-80
2022/03/12 04:59:57;;;;;;;2.08;1.27;;;;;;;10.37;36.37;101034.34;5175803;28;20030;-81
2022/03/12 05:02:28;;;;;;;1.30;1.25;;;;;;;10.30;36.38;101037.97;5171221;28;20390;-81
2022/03/12 05:05:02;;;;;;;1.40;1.30;;;;;;;10.30;36.37;101045.84;5147729;28;20030;-81
2022/03/12 05:07:32;;;;;;;1.35;1.30;;;;;;;10.28;36.62;101041.53;5188505;28;20030;-80
2022/03/12 05:10:05;;;;;;;1.77;1.63;;;;;;;10.33;36.58;101044.94;5163037;28;20126;-81
2022/03/12 05:12:39;;;;;;;0.85;0.85;;;;;;;10.32;36.43;101044.06;5172818;28;20430;-81
2022/03/12 05:15:14;;;;;;;0.85;0.85;;;;;;;10.31;36.60;101041.47;5191497;28;20464;-80
2022/03/12 05:17:50;;;;;;;0.70;0.70;;;;;;;10.26;36.21;101041.56;5168628;28;20478;-80
2022/03/12 05:20:24;;;;;;;0.77;0.68;;;;;;;10.28;36.26;101036.28;5165561;28;20532;-80
2022/03/12 05:23:07;;;;;;;2.08;1.95;;;;;;;10.13;36.44;101043.56;5171251;28;20037;-80
2022/03/12 05:25:42;;;;;;;4.63;1.27;;;;;;;10.22;36.65;101037.25;5179932;28;20045;-80
2022/03/12 05:28:17;;;;;;;1.63;1.52;;;;;;;10.12;36.71;101046.22;5161759;28;20022;-80
2022/03/12 05:30:49;;;;;;;2.17;0.82;;;;;;;10.10;36.87;101048.00;5186507;28;20101;-80
2022/03/12 05:33:20;;;;;;;0.95;0.95;;;;;;;10.13;36.68;101047.94;5182936;28;20045;-80
2022/03/12 05:35:54;;;;;;;0.52;0.52;;;;;;;10.13;37.05;101045.31;5164933;28;20045;-80
2022/03/12 05:38:37;;;;;;;2.03;1.75;;;;;;;10.16;36.55;101046.16;5155094;28;20036;-80
2022/03/12 05:41:10;;;;;;;0.95;0.95;;;;;;;10.16;36.55;101042.63;5162387;28;20125;-80
2022/03/12 05:43:46;;;;;;;1.23;1.23;;;;;;;10.03;37.42;101040.28;5165657;28;20433;-80
2022/03/12 05:46:20;;;;;;;1.00;1.00;;;;;;;10.03;37.29;101042.03;5184329;28;20384;-80
2022/03/12 05:48:52;;;;;;;0.63;0.63;;;;;;;10.06;37.12;101053.31;5171040;28;20629;-80
2022/03/12 05:51:22;;;;;;;1.80;1.70;;;;;;;10.06;37.49;101053.31;5196574;28;20091;-80
2022/03/12 05:53:53;;;;;;;2.45;1.95;;;;;;;9.91;37.87;101049.25;5173278;28;20025;-80
2022/03/12 05:56:23;;;;;;;1.05;1.05;;;;;;;9.94;37.85;101053.56;5184582;28;20055;-80
2022/03/12 05:58:54;;;;;;;0.50;0.50;;;;;;;9.61;38.79;101053.28;5201382;28;20129;-80
2022/03/12 06:01:30;;;;;;;0.88;0.88;;;;;;;9.82;38.00;101057.28;5175128;28;20057;-80
2022/03/12 06:04:01;;;;;;;0.85;0.85;;;;;;;9.91;38.22;101058.84;5178995;28;20041;-80
2022/03/12 06:06:34;;;;;;;2.75;1.50;;;;;;;9.54;38.74;101043.81;5164921;28;20045;-80
2022/03/12 06:09:07;;;;;;;;;;;;;;;9.45;39.30;101050.94;5181076;28;20119;-80
2022/03/12 06:11:38;;;;;;;3.30;0.85;;;;;;;9.62;38.80;101052.41;5168663;28;19933;-80
2022/03/12 06:14:16;;;;;;;1.77;1.67;;;;;;;9.61;38.62;101050.66;5188055;28;20033;-80
2022/03/12 06:16:48;;;;;;;1.95;1.85;;;;;;;9.68;38.58;101052.28;5179726;28;20073;-80
2022/03/12 06:19:21;;;;;;;2.05;1.95;;;;;;;9.80;38.26;101055.56;5161790;28;20033;-80
2022/03/12 06:21:52;;;;;;;1.80;1.50;;;;;;;9.75;38.36;101053.91;5173280;28;20041;-80
2022/03/12 06:24:22;;;;;;;0.70;0.70;;;;;;;9.70;38.69;101058.38;5174654;28;20036;-79
2022/03/12 06:26:53;;;;;;;1.13;1.00;;;;;;;9.81;38.63;101059.91;5159261;28;20034;-80
2022/03/12 06:29:24;;;;;;;1.23;1.13;;;;;;;9.82;38.30;101059.00;5180512;28;20613;-80
2022/03/12 06:31:54;;;;;;;0.82;0.82;;;;;;;9.62;39.12;101062.88;5179610;28;20038;-80
2022/03/12 06:34:25;;;;;;;1.33;1.25;;;;;;;9.66;39.30;101059.31;5184889;28;20034;-80
2022/03/12 06:36:55;;;;;;;1.77;1.48;;;;;;;9.56;39.59;101044.63;5178325;28;20038;-80
2022/03/12 06:39:26;;;;;;;0.57;0.57;;;;;;;9.34;41.03;101042.38;5174395;28;20080;-80
2022/03/12 06:41:57;;;;;;;5.15;1.95;;;;;;;9.32;40.70;101049.41;5169846;28;20038;-80
2022/03/12 06:44:31;;;;;;;1.33;1.27;;;;;;;9.55;39.72;101051.63;5173060;28;20038;-81
2022/03/12 06:47:07;;;;;;;0.93;0.93;;;;;;;9.57;40.00;101069.94;5154726;28;20036;-81
2022/03/12 06:49:41;;;;;;;1.90;1.80;;;;;;;9.27;41.71;101059.94;5159346;28;20123;-81
2022/03/12 06:52:11;;;;;;;3.30;1.90;;;;;;;9.40;41.11;101067.63;5176907;28;20097;-81
2022/03/12 06:54:42;;;;;;;0.82;0.82;;;;;;;9.60;40.28;101062.03;5165101;28;20037;-81
2022/03/12 06:57:12;;;;;;;1.55;1.45;;;;;;;9.40;41.11;101068.47;5173376;28;20582;-81
2022/03/12 06:59:43;;;;;;;0.73;0.73;;;;;;;9.50;40.49;101069.19;5191253;28;20041;-83
2022/03/12 07:02:16;;;;;;;1.25;1.15;;;;;;;9.61;40.97;101072.47;5193825;28;20037;-83
2022/03/12 07:04:47;;;;;;;1.75;1.65;;;;;;;9.63;40.90;101069.81;5181593;28;20029;-81
2022/03/12 07:07:17;;;;;;;0.88;0.88;;;;;;;9.74;40.50;101061.78;5187541;28;20033;-82
2022/03/12 07:09:48;;;;;;;4.60;1.60;;;;;;;9.75;40.41;101068.78;5185103;28;20097;-80
2022/03/12 07:12:18;;;;;;;1.20;1.10;;;;;;;9.83;40.87;101066.88;5174388;28;20041;-81
2022/03/12 07:14:48;;;;;;;2.83;1.80;;;;;;;9.84;40.97;101078.22;5181862;28;20085;-81
2022/03/12 07:17:19;;;;;;;1.70;1.60;;;;;;;9.80;41.04;101079.13;5176548;28;20026;-81
2022/03/12 07:19:50;;;;;;;0.68;0.68;;;;;;;9.87;40.66;101084.25;5168858;28;20149;-81
2022/03/12 07:22:21;;;;;;;1.95;1.35;;;;;;;9.94;40.66;101090.25;5170148;28;20200;-80
2022/03/12 07:24:51;;;;;;;2.80;1.88;;;;;;;10.03;41.71;101097.97;5173456;28;20060;-81
2022/03/12 07:27:22;;;;;;;1.10;1.10;;;;;;;10.08;41.71;101106.59;5170381;28;20034;-80
2022/03/12 07:29:53;;;;;;;1.50;1.40;;;;;;;10.07;41.26;101106.63;5171774;28;20038;-80
2022/03/12 07:32:28;;;;;;;1.20;0.90;;;;;;;10.10;43.64;101110.94;5178598;28;20087;-82
2022/03/12 07:34:59;;;;;;;1.23;1.10;;;;;;;10.04;42.59;101122.41;5173161;28;20514;-80
2022/03/12 07:37:29;;;;;;;1.60;1.50;;;;;;;10.11;42.67;101115.28;5175917;28;20063;-82
2022/03/12 07:40:00;;;;;;;8.82;1.48;;;;;;;10.10;43.01;101124.06;5160254;28;20099;-81
2022/03/12 07:42:31;;;;;;;1.10;1.10;;;;;;;10.20;42.12;101125.63;5164826;28;20034;-81
2022/03/12 07:45:03;;;;;;;0.88;0.88;;;;;;;10.19;42.89;101131.75;5180886;28;20037;-81
2022/03/12 07:47:34;;;;;;;1.40;1.30;;;;;;;10.36;42.50;101127.03;5160454;28;20655;-80
2022/03/12 07:50:07;;;;;;;0.98;0.98;;;;;;;10.20;46.24;101133.47;5151328;28;20099;-80
2022/03/12 07:52:37;;;;;;;1.27;1.25;;;;;;;10.39;43.34;101127.00;5162150;28;20037;-83
2022/03/12 07:55:09;;;;;;;1.20;1.10;;;;;;;10.51;43.31;101117.16;5184945;28;20548;-80
2022/03/12 07:57:41;;;;;;;1.70;0.60;;;;;;;10.37;47.82;101123.53;5184274;28;20030;-80
2022/03/12 08:00:14;;;;;;;0.60;0.60;;;;;;;10.50;45.06;101123.31;5177316;28;20115;-79
2022/03/12 08:02:47;;;;;;;1.05;0.95;;;;;;;10.52;46.48;101132.88;5168511;28;20045;-81
2022/03/12 08:05:21;;;;;;;0.70;0.70;;;;;;;10.59;48.05;101138.84;5143798;28;20042;-77
2022/03/12 08:07:56;;;;;;;1.30;1.23;;;;;;;10.60;48.71;101145.84;5184083;28;20034;-79
2022/03/12 08:10:26;;;;;;;1.05;1.02;;;;;;;10.63;50.88;101140.50;5185737;28;20318;-79
2022/03/12 08:12:57;;;;;;;0.82;0.82;;;;;;;10.70;54.17;101157.00;5163939;28;20026;-79
2022/03/12 08:15:28;;;;;;;0.30;0.30;;;;;;;10.79;53.90;101158.56;5189072;28;20049;-78
2022/03/12 08:17:58;;;;;;;1.02;1.02;;;;;;;10.84;54.11;101154.09;5185529;28;20041;-79
2022/03/12 08:20:28;;;;;;;1.15;1.15;;;;;;;10.94;54.42;101160.00;5162854;28;20253;-79
2022/03/12 08:22:59;;;;;;;9.75;1.15;;;;;;;11.15;54.06;101156.03;5176527;28;20221;-79
2022/03/12 08:25:30;;;;;;;0.20;0.20;;;;;;;11.01;56.79;101165.09;5178761;28;20094;-78
2022/03/12 08:28:04;;;;;;;0.93;0.93;;;;;;;11.07;57.09;101168.47;5173148;28;20029;-83
2022/03/12 08:30:36;;;;;;;0.45;0.45;;;;;;;11.16;55.24;101163.88;5178376;28;20053;-82
2022/03/12 08:33:07;;;;;;;1.02;1.02;;;;;;;11.23;56.35;101174.28;5167419;28;20160;-80
2022/03/12 08:35:38;;;;;;;0.90;0.90;;;;;;;11.24;57.03;101168.13;5162025;28;20046;-79
2022/03/12 08:38:09;;;;;;;0.65;0.60;;;;;;;11.34;56.18;101167.88;5173040;28;20037;-80
2022/03/12 08:40:39;;;;;;;0.50;0.50;;;;;;;11.37;54.86;101166.94;5186561;28;20073;-78
2022/03/12 08:43:10;;;;;;;0.73;0.73;;;;;;;11.36;57.75;101172.22;5152705;28;20540;-78
2022/03/12 08:45:40;;;;;;;0.95;0.95;;;;;;;11.48;56.47;101169.28;5186463;28;20486;-81
2022/03/12 08:48:12;;;;;;;0.60;0.60;;;;;;;11.51;56.91;101171.88;5183027;28;20068;-78
2022/03/12 08:50:47;;;;;;;1.17;1.10;;;;;;;11.63;55.14;101181.22;5180238;28;20206;-77
2022/03/12 08:53:17;;;;;;;0.57;0.57;;;;;;;11.64;56.15;101185.56;5192397;28;20033;-80
2022/03/12 08:55:48;;;;;;;0.60;0.60;;;;;;;11.71;55.56;101191.53;5165376;28;20121;-83
2022/03/12 08:58:20;;;;;;;2.25;0.90;;;;;;;11.67;56.71;101196.00;5164204;28;20046;-82
2022/03/12 09:00:52;;;;;;;0.65;0.65;;;;;;;11.70;63.81;101192.44;5157272;28;20050;-84
2022/03/12 09:03:23;;;;;;;0.60;0.60;;;;;;;11.60;68.28;101194.41;5161831;28;20243;-80
2022/03/12 09:05:54;;;;;;;1.02;1.02;;;;;;;11.71;67.82;101202.03;5154478;28;20056;-82
2022/03/12 09:08:25;;;;;;;0.88;0.73;;;;;;;11.70;68.16;101193.31;5177468;28;20085;-82
2022/03/12 09:10:55;;;;;;;0.82;0.75;;;;;;;11.68;69.64;101202.13;5178466;28;20240;-83
2022/03/12 09:13:26;;;;;;;1.90;1.42;;;;;;;11.57;68.14;101205.88;5170754;28;20033;-86
2022/03/12 09:15:57;;;;;;;0.32;0.32;;;;;;;11.58;68.72;101207.59;5189255;28;20292;-85
2022/03/12 09:18:28;;;;;;;1.25;1.17;;;;;;;11.54;69.49;101205.94;5186418;28;20022;-85
2022/03/12 09:20:59;;;;;;;1.55;1.45;;;;;;;11.53;69.66;101203.34;5169446;28;20022;-86
2022/03/12 09:23:29;;;;;;;0.50;0.50;;;;;;;11.52;69.51;101199.00;5146285;28;20438;-86
2022/03/12 09:26:00;;;;;;;15.27;1.38;;;;;;;11.55;68.13;101196.31;5187600;28;20628;-84
2022/03/12 09:28:31;;;;;;;1.75;0.88;;;;;;;11.42;67.62;101196.56;5146553;28;20017;-84
2022/03/12 09:31:04;;;;;;;0.28;0.28;;;;;;;11.47;66.59;101192.09;5163850;28;20521;-85
2022/03/12 09:33:35;;;;;;;0.80;0.80;;;;;;;11.52;65.58;101194.63;5164946;28;20039;-87
2022/03/12 09:36:07;;;;;;;0.30;0.30;;;;;;;11.50;65.76;101189.38;5165058;28;20317;-84
2022/03/12 09:38:39;;;;;;;1.08;1.05;;;;;;;11.53;65.29;101198.94;5184559;28;20170;-85
2022/03/12 09:41:12;;;;;;;1.52;1.42;;;;;;;11.53;66.79;101198.09;5166267;28;20049;-84
2022/03/12 09:43:43;;;;;;;0.65;0.65;;;;;;;11.51;64.16;101200.78;5146536;28;20026;-87
2022/03/12 09:46:13;;;;;;;0.40;0.40;;;;;;;11.54;65.35;101199.84;5164113;28;20042;-85
2022/03/12 09:48:44;;;;;;;1.48;1.38;;;;;;;11.52;63.25;101205.13;5181399;28;20093;-85
2022/03/12 09:51:14;;;;;;;0.52;0.52;;;;;;;11.55;62.91;101197.16;5175425;28;20043;-86
2022/03/12 09:53:48;;;;;;;0.90;0.90;;;;;;;11.63;61.68;101195.22;5147384;28;20380;-87
2022/03/12 09:56:18;;;;;;;0.52;0.52;;;;;;;11.58;61.96;101197.09;5154399;28;20042;-84
2022/03/12 09:58:49;;;;;;;0.60;0.60;;;;;;;11.61;64.25;101197.00;5160216;28;20088;-85
2022/03/12 10:01:20;;;;;;;0.32;0.32;;;;;;;11.67;61.92;101196.00;5177279;28;20537;-85
2022/03/12 10:03:50;;;;;;;0.30;0.30;;;;;;;11.71;60.90;101183.63;5164742;28;20069;-86
2022/03/12 10:06:21;;;;;;;1.08;0.70;;;;;;;11.77;60.65;101180.88;5159852;28;20060;-85
2022/03/12 10:08:55;;;;;;;5.93;0.77;;;;;;;11.84;60.82;101174.56;5155713;28;20044;-85
2022/03/12 10:11:25;;;;;;;0.28;0.28;;;;;;;11.91;60.30;101173.50;5144541;28;20387;-84
2022/03/12 10:13:56;;;;;;;0.30;0.30;;;;;;;11.96;59.49;101170.75;5176811;28;20026;-84
2022/03/12 10:16:29;;;;;;;0.30;0.30;;;;;;;12.04;59.28;101173.22;5177177;28;20049;-84
2022/03/12 10:19:00;;;;;;;0.30;0.30;;;;;;;12.09;59.84;101171.34;5157121;28;20033;-85
2022/03/12 10:21:32;;;;;;;0.47;0.47;;;;;;;12.18;59.52;101171.09;5157281;28;20534;-86
2022/03/12 10:24:02;;;;;;;0.50;0.50;;;;;;;12.22;59.47;101171.88;5164231;28;20038;-85
2022/03/12 10:26:33;;;;;;;0.45;0.45;;;;;;;12.30;58.25;101174.28;5160665;28;20053;-85
2022/03/12 10:29:06;;;;;;;0.40;0.40;;;;;;;12.31;57.66;101179.53;5187094;28;22995;-85
2022/03/12 10:31:41;;;;;;;1.23;0.95;;;;;;;12.36;56.91;101171.50;5162609;28;20075;-85
2022/03/12 10:34:23;;;;;;;0.50;0.50;;;;;;;12.45;56.16;101168.59;5150204;28;20029;-85
2022/03/12 10:36:57;;;;;;;0.32;0.32;;;;;;;12.43;55.67;101160.75;5175721;28;20046;-85
2022/03/12 10:39:36;;;;;;;0.40;0.40;;;;;;;12.48;56.03;101168.53;5179550;28;20037;-85
2022/03/12 10:42:08;;;;;;;0.50;0.50;;;;;;;12.56;56.02;101176.22;5147265;28;20074;-86
2022/03/12 10:44:42;;;;;;;3.15;0.57;;;;;;;12.59;56.11;101174.38;5180584;28;20081;-84
2022/03/12 10:47:23;;;;;;;0.45;0.45;;;;;;;12.75;55.13;101179.19;5159030;28;20538;-84
2022/03/12 10:50:06;;;;;;;0.35;0.35;;;;;;;12.71;56.70;101172.28;5182904;28;20037;-84
2022/03/12 10:52:45;;;;;;;0.45;0.45;;;;;;;12.79;56.27;101175.53;5152805;28;20025;-86
2022/03/12 10:55:19;;;;;;;0.30;0.30;;;;;;;12.83;55.94;101179.84;5154097;28;20507;-85
2022/03/12 10:58:07;;;;;;;0.40;0.40;;;;;;;12.89;56.10;101182.28;5164297;28;20207;-84
2022/03/12 11:00:50;;;;;;;1.02;0.75;;;;;;;12.95;56.00;101185.63;5167459;28;20557;-86
2022/03/12 11:03:23;;;;;;;0.30;0.30;;;;;;;12.97;55.41;101182.06;5150119;28;20562;-85
2022/03/12 11:05:56;;;;;;;1.08;0.68;;;;;;;13.06;54.04;101181.75;5163047;28;20054;-84
2022/03/12 11:08:28;;;;;;;0.52;0.52;;;;;;;13.13;54.74;101181.59;5158744;28;20475;-85
2022/03/12 11:11:01;;;;;;;0.43;0.43;;;;;;;13.18;55.48;101180.53;5164071;28;20108;-85
2022/03/12 11:13:38;;;;;;;0.20;0.20;;;;;;;13.19;54.21;101176.13;5182283;28;20090;-85
2022/03/12 11:16:32;;;;;;;0.32;0.32;;;;;;;13.28;55.16;101182.88;5172799;28;20037;-85
2022/03/12 11:19:08;;;;;;;2.38;0.68;;;;;;;13.43;55.74;101179.78;5152542;28;20502;-84
2022/03/12 11:21:42;;;;;;;0.60;0.60;;;;;;;13.44;55.04;101175.41;5164379;28;20042;-85
2022/03/12 11:24:24;;;;;;;;;;;;;;;13.53;54.93;101172.47;5164360;28;20061;-86
2022/03/12 11:27:01;;;;;;;0.35;0.35;;;;;;;13.56;54.97;101176.78;5188784;28;19928;-87
2022/03/12 11:29:32;;;;;;;1.30;0.80;;;;;;;13.72;53.83;101179.78;5155402;28;20034;-86
2022/03/12 11:32:05;;;;;;;0.43;0.43;;;;;;;13.72;54.11;101175.38;5174366;28;20086;-87
2022/03/12 11:34:40;;;;;;;1.05;0.70;;;;;;;13.76;54.26;101182.25;5165589;28;20033;-86
2022/03/12 11:37:21;;;;;;;2.42;2.05;;;;;;;13.90;53.04;101173.03;5149869;28;20095;-87
2022/03/12 11:39:55;;;;;;;0.60;0.60;;;;;;;13.91;53.07;101174.75;5156878;28;20037;-87
2022/03/12 11:42:27;;;;;;;0.50;0.50;;;;;;;14.00;51.68;101171.81;5172154;28;20058;-86
2022/03/12 11:45:00;;;;;;;0.60;0.60;;;;;;;14.00;51.59;101185.00;5157832;28;20025;-87
2022/03/12 11:47:40;;;;;;;0.32;0.32;;;;;;;14.09;50.96;101174.09;5161107;28;20112;-87
2022/03/12 11:50:18;;;;;;;0.40;0.40;;;;;;;14.14;51.29;101172.19;5173094;28;20045;-87